Time;durP1;ratioP1;P1;durP2;ratioP2;P2;SDS_P1;SDS_P2;PMS_P1;PMS_P2;Temp;Humidity;BMP_temperature;BMP_pressure;BME280_temperature;BME280_humidity;BME280_pressure;Samples;Min_cycle;Max_cycle;Signal;HPM_P1;HPM_P2
2021/12/11 00:01:16;;;;;;;35.50;17.65;;;;;;;;;;5035417;28;20643;-56
2021/12/11 00:03:44;;;;;;;26.63;17.90;;;;;;;;;;5035024;28;20270;-56
2021/12/11 00:06:13;;;;;;;23.80;16.50;;;;;;;;;;5035483;28;20214;-56
2021/12/11 00:08:43;;;;;;;27.33;17.30;;;;;;;;;;5035662;28;20226;-56
2021/12/11 00:11:14;;;;;;;26.73;17.45;;;;;;;;;;5035783;28;20583;-56
2021/12/11 00:13:42;;;;;;;29.23;17.90;;;;;;;;;;5035119;28;20210;-56
2021/12/11 00:16:10;;;;;;;25.30;17.60;;;;;;;;;;5034510;28;20202;-56
2021/12/11 00:18:38;;;;;;;25.88;16.67;;;;;;;;;;5033785;28;20257;-56
2021/12/11 00:21:07;;;;;;;22.90;17.55;;;;;;;;;;5033779;28;20206;-56
2021/12/11 00:23:36;;;;;;;25.40;16.33;;;;;;;;;;5034034;28;20569;-56
2021/12/11 00:26:04;;;;;;;27.35;17.83;;;;;;;;;;5037976;28;20229;-56
2021/12/11 00:28:32;;;;;;;37.35;18.13;;;;;;;;;;5037968;28;20283;-56
2021/12/11 00:31:00;;;;;;;25.58;17.13;;;;;;;;;;5038720;28;20202;-56
2021/12/11 00:33:29;;;;;;;23.52;17.40;;;;;;;;;;5037441;28;20249;-56
2021/12/11 00:35:56;;;;;;;24.38;16.45;;;;;;;;;;5037561;28;20206;-56
2021/12/11 00:38:25;;;;;;;26.27;16.25;;;;;;;;;;5037382;28;20226;-56
2021/12/11 00:40:54;;;;;;;25.10;16.88;;;;;;;;;;5036916;28;20206;-56
2021/12/11 00:43:28;;;;;;;29.17;17.65;;;;;;;;;;5037008;28;20198;-56
2021/12/11 00:45:58;;;;;;;31.05;18.75;;;;;;;;;;5037069;28;20218;-56
2021/12/11 00:48:26;;;;;;;28.95;18.20;;;;;;;;;;5036935;28;20264;-56
2021/12/11 00:50:57;;;;;;;22.83;16.27;;;;;;;;;;5036872;28;20576;-56
2021/12/11 00:53:26;;;;;;;27.63;17.00;;;;;;;;;;5036748;28;20214;-55
2021/12/11 00:55:55;;;;;;;25.83;15.52;;;;;;;;;;5036395;28;20551;-56
2021/12/11 00:58:24;;;;;;;26.77;16.88;;;;;;;;;;5036333;28;20222;-56
2021/12/11 01:00:53;;;;;;;28.60;17.48;;;;;;;;;;5036704;28;20206;-57
2021/12/11 01:03:23;;;;;;;28.25;18.20;;;;;;;;;;5037484;28;20202;-57
2021/12/11 01:05:52;;;;;;;32.50;17.25;;;;;;;;;;5036822;28;20198;-57
2021/12/11 01:08:23;;;;;;;28.98;17.92;;;;;;;;;;5036222;28;20218;-57
2021/12/11 01:10:52;;;;;;;25.30;16.88;;;;;;;;;;5036574;28;20187;-58
2021/12/11 01:13:24;;;;;;;26.20;17.70;;;;;;;;;;5036593;28;20352;-57
2021/12/11 01:15:54;;;;;;;50.03;18.77;;;;;;;;;;5036198;28;20705;-56
2021/12/11 01:18:34;;;;;;;43.70;18.73;;;;;;;;;;5036055;28;20623;-56
2021/12/11 01:21:06;;;;;;;50.05;19.73;;;;;;;;;;5036386;28;20186;-56
2021/12/11 01:23:47;;;;;;;34.97;19.42;;;;;;;;;;5036253;28;20183;-56
2021/12/11 01:26:17;;;;;;;35.85;18.50;;;;;;;;;;5036034;28;20191;-56
2021/12/11 01:28:45;;;;;;;35.20;18.98;;;;;;;;;;5036133;28;20229;-57
2021/12/11 01:31:14;;;;;;;30.90;18.05;;;;;;;;;;5035863;28;20693;-56
2021/12/11 01:33:42;;;;;;;31.88;18.30;;;;;;;;;;5035760;28;20225;-56
2021/12/11 01:36:10;;;;;;;28.35;18.88;;;;;;;;;;5034982;28;20673;-57
2021/12/11 01:38:38;;;;;;;30.13;19.60;;;;;;;;;;5035671;28;20394;-56
2021/12/11 01:41:10;;;;;;;25.05;18.35;;;;;;;;;;5035959;28;20214;-57
2021/12/11 01:43:39;;;;;;;27.67;17.58;;;;;;;;;;5035946;28;20557;-56
2021/12/11 01:46:07;;;;;;;28.42;18.10;;;;;;;;;;5035524;28;20210;-56
2021/12/11 01:48:36;;;;;;;26.90;18.25;;;;;;;;;;5035337;28;20252;-57
2021/12/11 01:51:06;;;;;;;32.58;18.90;;;;;;;;;;5035241;28;20682;-56
2021/12/11 01:53:35;;;;;;;28.00;18.65;;;;;;;;;;5035196;28;20202;-55
2021/12/11 01:56:07;;;;;;;36.83;19.65;;;;;;;;;;5035546;28;20229;-56
2021/12/11 01:58:37;;;;;;;24.02;17.15;;;;;;;;;;5035527;28;20229;-56
2021/12/11 02:01:09;;;;;;;27.63;18.33;;;;;;;;;;5035861;28;20297;-56
2021/12/11 02:03:37;;;;;;;33.22;19.00;;;;;;;;;;5035599;28;20194;-56
2021/12/11 02:06:06;;;;;;;29.42;17.90;;;;;;;;;;5035206;28;20198;-56
2021/12/11 02:08:36;;;;;;;29.05;19.48;;;;;;;;;;5035112;28;20706;-56
2021/12/11 02:11:06;;;;;;;31.20;19.42;;;;;;;;;;5035406;28;20210;-57
2021/12/11 02:13:39;;;;;;;27.52;18.98;;;;;;;;;;5035304;28;20206;-57
2021/12/11 02:16:08;;;;;;;29.33;19.00;;;;;;;;;;5035363;28;20601;-56
2021/12/11 02:18:43;;;;;;;24.88;17.98;;;;;;;;;;5034975;28;20237;-57
2021/12/11 02:21:13;;;;;;;30.65;18.85;;;;;;;;;;5034910;28;20232;-56
2021/12/11 02:23:42;;;;;;;29.60;19.55;;;;;;;;;;5035778;28;20198;-57
2021/12/11 02:26:13;;;;;;;27.40;17.27;;;;;;;;;;5034796;28;20221;-56
2021/12/11 02:28:42;;;;;;;33.35;20.70;;;;;;;;;;5035044;28;20222;-57
2021/12/11 02:31:13;;;;;;;31.13;18.90;;;;;;;;;;5034991;28;20209;-56
2021/12/11 02:33:43;;;;;;;30.85;20.42;;;;;;;;;;5034609;28;20187;-56
2021/12/11 02:36:12;;;;;;;27.58;19.20;;;;;;;;;;5034599;28;20570;-57
2021/12/11 02:38:43;;;;;;;26.30;17.95;;;;;;;;;;5034540;28;20223;-56
2021/12/11 02:41:13;;;;;;;26.80;17.17;;;;;;;;;;5034987;28;20201;-56
2021/12/11 02:43:42;;;;;;;25.67;17.98;;;;;;;;;;5035219;28;20285;-56
2021/12/11 02:46:12;;;;;;;26.35;18.45;;;;;;;;;;5034622;28;20210;-56
2021/12/11 02:48:41;;;;;;;29.45;19.45;;;;;;;;;;5033409;28;20230;-56
2021/12/11 02:51:11;;;;;;;25.45;17.17;;;;;;;;;;5034714;28;20203;-56
2021/12/11 02:53:40;;;;;;;33.25;20.17;;;;;;;;;;5034383;28;20301;-56
2021/12/11 02:56:10;;;;;;;28.15;17.15;;;;;;;;;;5034238;28;20198;-56
2021/12/11 02:58:42;;;;;;;31.08;17.92;;;;;;;;;;5034753;28;20300;-56
2021/12/11 03:01:11;;;;;;;25.52;17.35;;;;;;;;;;5035005;28;20191;-56
2021/12/11 03:03:43;;;;;;;24.42;16.48;;;;;;;;;;5034650;28;20662;-56
2021/12/11 03:06:17;;;;;;;29.80;17.45;;;;;;;;;;5034449;28;20190;-56
2021/12/11 03:08:45;;;;;;;23.17;17.35;;;;;;;;;;5034184;28;20316;-56
2021/12/11 03:11:13;;;;;;;29.77;18.40;;;;;;;;;;5034564;28;20229;-56
2021/12/11 03:13:49;;;;;;;23.55;16.95;;;;;;;;;;5034353;28;20214;-56
2021/12/11 03:16:17;;;;;;;27.52;17.55;;;;;;;;;;5034412;28;20193;-56
2021/12/11 03:18:44;;;;;;;26.92;18.45;;;;;;;;;;5033922;28;20233;-56
2021/12/11 03:21:12;;;;;;;28.42;17.60;;;;;;;;;;5034089;28;20202;-56
2021/12/11 03:23:40;;;;;;;29.08;17.58;;;;;;;;;;5034041;28;20206;-56
2021/12/11 03:26:07;;;;;;;28.15;17.40;;;;;;;;;;5033923;28;20218;-56
2021/12/11 03:28:34;;;;;;;26.00;17.08;;;;;;;;;;5034166;28;20233;-56
2021/12/11 03:31:05;;;;;;;28.40;19.15;;;;;;;;;;5033814;28;20205;-57
2021/12/11 03:33:33;;;;;;;25.90;17.65;;;;;;;;;;5034718;28;20198;-56
2021/12/11 03:36:02;;;;;;;28.48;19.70;;;;;;;;;;5033898;28;20230;-57
2021/12/11 03:38:30;;;;;;;24.85;16.23;;;;;;;;;;5033686;28;20237;-56
2021/12/11 03:40:57;;;;;;;26.95;18.15;;;;;;;;;;5033754;28;20202;-56
2021/12/11 03:43:27;;;;;;;23.75;16.27;;;;;;;;;;5033811;28;20558;-56
2021/12/11 03:45:56;;;;;;;22.92;16.15;;;;;;;;;;5033493;28;20210;-56
2021/12/11 03:48:29;;;;;;;25.65;16.25;;;;;;;;;;5033287;28;20706;-56
2021/12/11 03:50:57;;;;;;;27.75;18.17;;;;;;;;;;5033392;28;20665;-56
2021/12/11 03:53:25;;;;;;;25.63;15.90;;;;;;;;;;5033326;28;20202;-56
2021/12/11 03:55:53;;;;;;;26.00;17.83;;;;;;;;;;5033482;28;20225;-56
2021/12/11 03:58:21;;;;;;;26.83;17.00;;;;;;;;;;5032921;28;20222;-57
2021/12/11 04:00:50;;;;;;;28.48;17.70;;;;;;;;;;5033402;28;20206;-56
2021/12/11 04:03:20;;;;;;;25.30;17.90;;;;;;;;;;5033543;28;20209;-57
2021/12/11 04:09:01;;;;;;;23.80;16.35;;;;;;;;;;5090694;27;20562;-56
2021/12/11 04:11:29;;;;;;;21.25;16.10;;;;;;;;;;5090820;28;20227;-55
2021/12/11 04:13:58;;;;;;;20.02;14.90;;;;;;;;;;5090546;28;20201;-55
2021/12/11 04:16:26;;;;;;;23.92;17.30;;;;;;;;;;5090955;28;20582;-56
2021/12/11 04:18:53;;;;;;;22.90;16.63;;;;;;;;;;5090634;28;20221;-56
2021/12/11 04:21:21;;;;;;;24.52;16.20;;;;;;;;;;5105314;22;20234;-61
2021/12/11 04:23:48;;;;;;;21.48;15.20;;;;;;;;;;5030946;28;20594;-61
2021/12/11 04:26:17;;;;;;;25.65;16.50;;;;;;;;;;5031005;28;20210;-60
2021/12/11 04:28:46;;;;;;;23.25;16.65;;;;;;;;;;5030664;28;20222;-59
2021/12/11 04:31:23;;;;;;;21.17;14.23;;;;;;;;;;5030794;28;20260;-59
2021/12/11 04:33:52;;;;;;;22.92;16.67;;;;;;;;;;5030515;28;20194;-60
2021/12/11 04:36:21;;;;;;;20.65;15.57;;;;;;;;;;5030692;28;20211;-60
2021/12/11 04:38:49;;;;;;;20.38;14.93;;;;;;;;;;5036510;28;20206;-60
2021/12/11 04:41:21;;;;;;;21.02;15.98;;;;;;;;;;5039379;28;20256;-60
2021/12/11 04:43:49;;;;;;;19.83;15.82;;;;;;;;;;5032554;28;20191;-60
2021/12/11 04:46:16;;;;;;;18.38;14.40;;;;;;;;;;5033934;28;20214;-60
2021/12/11 04:48:53;;;;;;;20.20;15.45;;;;;;;;;;5033763;28;20222;-60
2021/12/11 04:51:26;;;;;;;21.33;15.18;;;;;;;;;;5030363;28;20222;-60
2021/12/11 04:54:05;;;;;;;19.73;14.45;;;;;;;;;;5030462;28;20183;-60
2021/12/11 04:59:33;;;;;;;17.90;13.75;;;;;;;;;;5028343;28;20623;-60
2021/12/11 05:02:12;;;;;;;19.08;14.20;;;;;;;;;;5030430;28;20284;-60
2021/12/11 05:04:54;;;;;;;20.35;14.88;;;;;;;;;;5030023;28;20309;-61
2021/12/11 05:07:29;;;;;;;16.77;12.52;;;;;;;;;;5030228;28;20215;-60
2021/12/11 05:10:02;;;;;;;18.40;13.90;;;;;;;;;;5031737;28;20186;-58
2021/12/11 05:12:35;;;;;;;19.05;14.45;;;;;;;;;;5030913;28;20668;-60
2021/12/11 05:15:04;;;;;;;16.10;12.38;;;;;;;;;;5031899;28;20187;-60
2021/12/11 05:17:32;;;;;;;18.20;14.43;;;;;;;;;;5031168;28;20206;-59
2021/12/11 05:20:00;;;;;;;18.83;12.70;;;;;;;;;;5019239;28;20203;-60
2021/12/11 05:22:28;;;;;;;16.83;12.85;;;;;;;;;;5016773;28;20235;-60
2021/12/11 05:24:56;;;;;;;16.67;13.00;;;;;;;;;;5016351;28;20203;-60
2021/12/11 05:27:24;;;;;;;14.80;12.50;;;;;;;;;;5016407;28;20234;-60
2021/12/11 05:29:53;;;;;;;17.33;13.02;;;;;;;;;;5016710;28;20207;-59
2021/12/11 05:32:22;;;;;;;20.60;14.10;;;;;;;;;;5016260;28;20230;-61
2021/12/11 05:34:49;;;;;;;18.83;12.93;;;;;;;;;;5016659;28;20203;-60
2021/12/11 05:37:17;;;;;;;19.27;13.95;;;;;;;;;;5017793;28;20203;-59
2021/12/11 05:39:44;;;;;;;18.35;13.30;;;;;;;;;;5017814;28;20209;-59
2021/12/11 05:42:12;;;;;;;17.48;13.00;;;;;;;;;;5017199;28;20234;-59
2021/12/11 05:44:40;;;;;;;14.05;12.20;;;;;;;;;;5017522;28;20215;-60
2021/12/11 05:47:09;;;;;;;17.95;13.95;;;;;;;;;;5017026;28;20210;-60
2021/12/11 05:49:37;;;;;;;19.40;13.02;;;;;;;;;;5016997;28;20298;-60
2021/12/11 05:52:05;;;;;;;17.23;13.18;;;;;;;;;;5016668;28;20231;-60
2021/12/11 05:54:32;;;;;;;17.25;13.57;;;;;;;;;;5016242;28;20221;-59
2021/12/11 05:57:02;;;;;;;15.90;12.30;;;;;;;;;;5015999;28;20262;-60
2021/12/11 05:59:30;;;;;;;19.77;13.13;;;;;;;;;;5016049;28;20597;-60
2021/12/11 06:01:58;;;;;;;18.70;13.27;;;;;;;;;;5015539;28;20223;-59
2021/12/11 06:04:28;;;;;;;18.17;13.48;;;;;;;;;;5016041;28;20682;-60
2021/12/11 06:06:56;;;;;;;14.23;11.63;;;;;;;;;;5024084;28;20211;-59
2021/12/11 06:09:26;;;;;;;15.75;13.52;;;;;;;;;;5026834;28;20229;-60
2021/12/11 06:11:58;;;;;;;15.82;13.05;;;;;;;;;;5027399;28;20234;-59
2021/12/11 06:14:25;;;;;;;14.65;12.10;;;;;;;;;;5027313;28;20183;-60
2021/12/11 06:16:54;;;;;;;16.08;13.77;;;;;;;;;;5027581;28;20203;-59
2021/12/11 06:19:22;;;;;;;16.02;12.38;;;;;;;;;;5027386;28;20198;-59
2021/12/11 06:21:51;;;;;;;17.70;13.25;;;;;;;;;;5028558;28;20235;-60
2021/12/11 06:24:19;;;;;;;15.90;13.82;;;;;;;;;;5026108;28;20203;-59
2021/12/11 06:26:47;;;;;;;16.00;13.40;;;;;;;;;;5019438;28;20589;-59
2021/12/11 06:29:14;;;;;;;14.98;12.45;;;;;;;;;;5022523;28;20223;-60
2021/12/11 06:31:43;;;;;;;19.15;12.70;;;;;;;;;;5023661;28;20706;-63
2021/12/11 06:34:10;;;;;;;14.68;12.63;;;;;;;;;;5025176;28;20206;-59
2021/12/11 06:36:38;;;;;;;16.83;13.70;;;;;;;;;;5023167;28;20203;-59
2021/12/11 06:39:08;;;;;;;15.73;13.30;;;;;;;;;;5019730;28;20206;-59
2021/12/11 06:41:36;;;;;;;22.25;14.43;;;;;;;;;;5020244;28;20223;-59
2021/12/11 06:44:04;;;;;;;17.77;13.80;;;;;;;;;;5017454;28;20210;-60
2021/12/11 06:46:32;;;;;;;19.90;13.50;;;;;;;;;;5017368;28;20214;-59
2021/12/11 06:49:00;;;;;;;20.38;15.00;;;;;;;;;;5016373;28;20215;-59
2021/12/11 06:51:27;;;;;;;17.73;14.40;;;;;;;;;;5016451;28;20219;-59
2021/12/11 06:53:56;;;;;;;18.13;13.35;;;;;;;;;;5016469;28;20206;-60
2021/12/11 06:56:25;;;;;;;16.17;13.60;;;;;;;;;;5021881;28;20203;-59
2021/12/11 06:58:54;;;;;;;18.20;13.18;;;;;;;;;;5015814;28;20207;-60
2021/12/11 07:01:22;;;;;;;16.98;13.10;;;;;;;;;;5014988;28;20310;-59
2021/12/11 07:03:50;;;;;;;17.33;13.35;;;;;;;;;;5015583;28;20289;-59
2021/12/11 07:06:17;;;;;;;16.73;12.80;;;;;;;;;;5015127;28;20229;-59
2021/12/11 07:08:46;;;;;;;19.60;14.50;;;;;;;;;;5015202;28;20622;-60
2021/12/11 07:11:14;;;;;;;14.73;12.32;;;;;;;;;;5015307;28;20206;-60
2021/12/11 07:13:43;;;;;;;17.27;12.85;;;;;;;;;;5015259;28;20214;-59
2021/12/11 07:16:11;;;;;;;17.73;14.23;;;;;;;;;;5015256;28;20557;-60
2021/12/11 07:18:39;;;;;;;14.93;13.00;;;;;;;;;;5014819;28;20195;-61
2021/12/11 07:21:07;;;;;;;18.63;13.50;;;;;;;;;;5014654;28;20207;-61
2021/12/11 07:23:34;;;;;;;17.13;13.02;;;;;;;;;;5014636;28;20188;-61
2021/12/11 07:26:04;;;;;;;17.65;14.27;;;;;;;;;;5014846;28;20198;-60
2021/12/11 07:28:31;;;;;;;17.75;13.30;;;;;;;;;;5014634;28;20238;-60
2021/12/11 07:31:01;;;;;;;17.25;13.38;;;;;;;;;;5015561;28;20211;-62
2021/12/11 07:33:28;;;;;;;17.80;11.80;;;;;;;;;;5014690;28;20576;-61
2021/12/11 07:35:55;;;;;;;24.33;14.43;;;;;;;;;;5014251;28;20203;-60
2021/12/11 07:38:23;;;;;;;19.17;14.10;;;;;;;;;;5014510;28;20207;-61
2021/12/11 07:40:52;;;;;;;17.65;13.20;;;;;;;;;;5014650;28;20207;-61
2021/12/11 07:43:20;;;;;;;18.65;12.85;;;;;;;;;;5014457;28;20231;-61
2021/12/11 07:45:48;;;;;;;17.55;13.18;;;;;;;;;;5017777;28;20207;-61
2021/12/11 07:48:16;;;;;;;18.27;14.02;;;;;;;;;;5019551;28;20219;-61
2021/12/11 07:50:44;;;;;;;19.17;15.70;;;;;;;;;;5015508;28;20675;-61
2021/12/11 07:53:11;;;;;;;18.38;13.20;;;;;;;;;;5014238;28;20285;-61
2021/12/11 07:55:39;;;;;;;18.40;13.75;;;;;;;;;;5015011;28;20203;-60
2021/12/11 07:58:06;;;;;;;18.08;13.43;;;;;;;;;;5013845;28;20206;-60
2021/12/11 08:00:35;;;;;;;18.33;13.80;;;;;;;;;;5014197;28;20298;-60
2021/12/11 08:03:03;;;;;;;19.55;14.25;;;;;;;;;;5017427;28;20223;-59
2021/12/11 08:05:32;;;;;;;18.85;14.23;;;;;;;;;;5016300;28;20628;-61
2021/12/11 08:08:01;;;;;;;22.65;13.48;;;;;;;;;;5013850;28;20214;-61
2021/12/11 08:10:29;;;;;;;20.17;13.70;;;;;;;;;;5013752;28;20284;-61
2021/12/11 08:12:57;;;;;;;19.30;13.00;;;;;;;;;;5013927;28;20254;-60
2021/12/11 08:15:24;;;;;;;16.13;13.35;;;;;;;;;;5013560;28;20202;-61
2021/12/11 08:17:54;;;;;;;22.15;14.80;;;;;;;;;;5013215;28;20210;-60
2021/12/11 08:20:22;;;;;;;22.67;14.27;;;;;;;;;;5013923;28;20202;-60
2021/12/11 08:22:52;;;;;;;21.02;14.55;;;;;;;;;;5013175;28;20231;-61
2021/12/11 08:25:20;;;;;;;17.70;14.13;;;;;;;;;;5013441;28;20207;-60
2021/12/11 08:27:47;;;;;;;17.15;13.10;;;;;;;;;;5013170;28;20604;-60
2021/12/11 08:30:15;;;;;;;17.02;13.43;;;;;;;;;;5013297;28;20222;-61
2021/12/11 08:32:42;;;;;;;18.15;14.30;;;;;;;;;;5013419;28;20233;-61
2021/12/11 08:35:10;;;;;;;17.40;13.85;;;;;;;;;;5013138;28;20199;-60
2021/12/11 08:37:37;;;;;;;18.33;14.88;;;;;;;;;;5013090;28;20242;-61
2021/12/11 08:40:08;;;;;;;17.17;12.63;;;;;;;;;;5013412;28;20290;-61
2021/12/11 08:42:35;;;;;;;19.40;14.15;;;;;;;;;;5013223;28;20230;-60
2021/12/11 08:45:06;;;;;;;18.65;13.80;;;;;;;;;;5013531;28;20206;-61
2021/12/11 08:47:35;;;;;;;19.17;14.30;;;;;;;;;;5013672;28;20188;-59
2021/12/11 08:50:02;;;;;;;17.27;14.73;;;;;;;;;;5013612;28;20223;-61
2021/12/11 08:52:31;;;;;;;16.27;13.70;;;;;;;;;;5013235;28;20710;-60
2021/12/11 08:54:59;;;;;;;17.08;13.25;;;;;;;;;;5015185;28;20219;-61
2021/12/11 08:57:31;;;;;;;18.25;13.82;;;;;;;;;;5017179;28;20199;-61
2021/12/11 08:59:59;;;;;;;19.88;14.00;;;;;;;;;;5017068;28;20183;-61
2021/12/11 09:02:28;;;;;;;19.10;14.63;;;;;;;;;;5016645;28;20702;-60
2021/12/11 09:04:57;;;;;;;19.02;14.38;;;;;;;;;;5016529;28;20210;-60
2021/12/11 09:07:28;;;;;;;16.65;13.95;;;;;;;;;;5017003;28;20207;-62
2021/12/11 09:09:57;;;;;;;20.40;14.60;;;;;;;;;;5016805;28;20219;-61
2021/12/11 09:12:27;;;;;;;18.40;14.00;;;;;;;;;;5016380;28;20235;-59
2021/12/11 09:14:57;;;;;;;17.67;14.55;;;;;;;;;;5016451;28;20336;-60
2021/12/11 09:17:26;;;;;;;17.52;14.75;;;;;;;;;;5016566;28;20191;-61
2021/12/11 09:19:55;;;;;;;17.55;14.82;;;;;;;;;;5016216;28;20665;-61
2021/12/11 09:22:24;;;;;;;18.98;14.45;;;;;;;;;;5016892;28;20242;-62
2021/12/11 09:24:54;;;;;;;22.52;14.70;;;;;;;;;;5017548;28;20207;-62
2021/12/11 09:27:24;;;;;;;17.60;13.25;;;;;;;;;;5017707;28;20188;-61
2021/12/11 09:29:53;;;;;;;17.35;13.45;;;;;;;;;;5017974;28;20227;-62
2021/12/11 09:32:24;;;;;;;18.52;14.48;;;;;;;;;;5017508;28;20737;-61
2021/12/11 09:34:53;;;;;;;19.20;14.50;;;;;;;;;;5022475;28;20188;-62
2021/12/11 09:37:21;;;;;;;22.10;14.43;;;;;;;;;;5024340;28;20632;-61
2021/12/11 09:39:49;;;;;;;19.27;14.93;;;;;;;;;;5030032;28;20222;-61
2021/12/11 09:42:19;;;;;;;16.40;12.82;;;;;;;;;;5025851;28;20227;-61
2021/12/11 09:44:50;;;;;;;20.00;14.63;;;;;;;;;;5022771;28;20203;-59
2021/12/11 09:47:19;;;;;;;18.75;15.85;;;;;;;;;;5028736;28;20590;-61
2021/12/11 09:49:52;;;;;;;20.60;14.60;;;;;;;;;;5019202;28;20246;-61
2021/12/11 09:52:24;;;;;;;19.58;13.80;;;;;;;;;;5016546;28;20281;-61
2021/12/11 09:54:53;;;;;;;16.48;14.55;;;;;;;;;;5016024;28;20187;-61
2021/12/11 09:57:21;;;;;;;15.25;12.88;;;;;;;;;;5016273;28;20203;-62
2021/12/11 09:59:51;;;;;;;16.30;14.48;;;;;;;;;;5016218;28;20199;-60
2021/12/11 10:02:20;;;;;;;19.63;14.07;;;;;;;;;;5016080;28;20223;-62
2021/12/11 10:04:56;;;;;;;20.17;14.40;;;;;;;;;;5015759;28;20214;-61
2021/12/11 10:07:28;;;;;;;20.63;16.10;;;0.60;99.90;;;;;;5015704;28;20187;-61
2021/12/11 10:10:00;;;;;;;20.85;13.82;;;2.50;99.90;;;;;;5015833;28;20269;-61
2021/12/11 10:12:30;;;;;;;18.85;13.65;;;2.50;99.90;;;;;;5015849;28;20227;-60
2021/12/11 10:15:04;;;;;;;16.98;14.02;;;2.60;99.90;;;;;;5015951;28;20211;-61
2021/12/11 10:17:37;;;;;;;25.48;13.82;;;2.60;99.90;;;;;;5015646;28;20198;-60
2021/12/11 10:20:09;;;;;;;19.17;14.80;;;2.70;99.90;;;;;;5015836;28;20250;-62
2021/12/11 10:22:39;;;;;;;20.75;15.35;;;2.80;99.90;;;;;;5016809;28;20227;-62
2021/12/11 10:25:12;;;;;;;19.20;13.95;;;2.90;99.90;;;;;;5015823;28;20671;-64
2021/12/11 10:27:39;;;;;;;19.75;14.75;;;3.00;99.90;;;;;;5015842;28;20187;-63
2021/12/11 10:30:11;;;;;;;17.30;14.38;;;3.10;99.90;;;;;;5015258;28;20223;-63
2021/12/11 10:32:38;;;;;;;19.20;15.20;;;3.20;99.90;;;;;;5014995;28;20714;-63
2021/12/11 10:35:10;;;;;;;21.23;14.98;;;3.30;99.90;;;;;;5015266;28;20211;-60
2021/12/11 10:37:39;;;;;;;21.15;13.07;;;3.40;99.90;;;;;;5015210;28;20249;-61
2021/12/11 10:40:10;;;;;;;19.23;13.85;;;3.40;99.90;;;;;;5014566;28;20675;-60
2021/12/11 10:42:38;;;;;;;20.30;14.73;;;3.40;99.90;;;;;;5014755;28;20219;-60
2021/12/11 10:45:07;;;;;;;17.20;14.02;;;3.40;99.90;;;;;;5015720;28;20635;-60
2021/12/11 10:47:39;;;;;;;20.42;13.73;;;3.50;99.90;;;;;;5015012;28;20210;-61
2021/12/11 10:50:09;;;;;;;19.90;14.00;;;3.50;99.90;;;;;;5015888;28;20211;-61
2021/12/11 10:52:37;;;;;;;23.02;14.07;;;3.50;99.90;;;;;;5015711;28;20218;-62
2021/12/11 10:55:13;;;;;;;18.95;13.35;;;3.50;99.90;;;;;;5015631;28;20317;-61
2021/12/11 10:57:41;;;;;;;23.20;15.65;;;3.50;99.90;;;;;;5015038;28;20210;-61
2021/12/11 11:00:16;;;;;;;24.08;15.70;;;3.60;99.90;;;;;;5014727;28;20214;-60
2021/12/11 11:02:45;;;;;;;20.95;14.93;;;3.60;99.90;;;;;;5014627;28;20234;-61
2021/12/11 11:05:15;;;;;;;19.90;14.82;;;3.60;99.90;;;;;;5014023;28;20291;-61
2021/12/11 11:07:44;;;;;;;18.33;13.57;;;3.70;99.90;;;;;;5014693;28;20195;-61
2021/12/11 11:10:18;;;;;;;19.90;14.35;;;3.70;99.90;;;;;;5014479;28;20223;-61
2021/12/11 11:12:46;;;;;;;21.35;14.75;;;3.70;99.90;;;;;;5014864;28;20230;-61
2021/12/11 11:15:16;;;;;;;22.38;14.85;;;3.80;99.90;;;;;;5014825;28;20202;-61
2021/12/11 11:17:45;;;;;;;20.55;15.40;;;3.80;99.90;;;;;;5014585;28;20191;-60
2021/12/11 11:20:16;;;;;;;18.25;13.20;;;3.90;99.90;;;;;;5015063;28;20199;-61
2021/12/11 11:22:45;;;;;;;18.67;14.20;;;3.90;99.90;;;;;;5020278;28;20230;-61
2021/12/11 11:25:15;;;;;;;18.55;14.20;;;3.90;99.90;;;;;;5024607;28;20207;-60
2021/12/11 11:27:45;;;;;;;17.70;13.57;;;4.00;99.90;;;;;;5019171;28;20218;-61
2021/12/11 11:30:17;;;;;;;19.17;13.60;;;4.00;99.90;;;;;;5018608;28;20640;-61
2021/12/11 11:32:46;;;;;;;19.27;13.43;;;4.00;99.90;;;;;;5019734;28;20226;-61
2021/12/11 11:35:17;;;;;;;19.15;14.25;;;4.00;99.90;;;;;;5018248;28;20207;-60
2021/12/11 11:37:45;;;;;;;22.83;16.02;;;3.90;99.90;;;;;;5016175;28;20187;-61
2021/12/11 11:40:16;;;;;;;20.92;14.15;;;4.00;99.90;;;;;;5015492;28;20202;-62
2021/12/11 11:42:43;;;;;;;17.67;14.18;;;4.00;99.90;;;;;;5019659;28;20710;-60
2021/12/11 11:45:12;;;;;;;22.88;13.88;;;4.10;99.90;;;;;;5025333;28;20225;-61
2021/12/11 11:47:41;;;;;;;21.00;14.95;;;4.10;99.90;;;;;;5017371;28;20294;-60
2021/12/11 11:50:11;;;;;;;19.33;13.65;;;4.20;99.90;;;;;;5015115;28;20229;-61
2021/12/11 11:52:40;;;;;;;19.40;14.68;;;4.20;99.90;;;;;;5014764;28;20698;-61
2021/12/11 11:55:14;;;;;;;18.70;14.32;;;4.20;99.90;;;;;;5013706;28;20239;-63
2021/12/11 11:57:43;;;;;;;19.52;14.23;;;4.20;99.90;;;;;;5014022;28;20187;-60
2021/12/11 12:00:16;;;;;;;17.02;13.00;;;4.30;99.90;;;;;;5014577;28;20210;-61
2021/12/11 12:02:43;;;;;;;20.17;13.93;;;4.40;99.90;;;;;;5014025;28;20223;-61
2021/12/11 12:05:12;;;;;;;15.68;12.70;;;4.40;99.90;;;;;;5013543;28;20294;-62
2021/12/11 12:07:39;;;;;;;15.77;12.00;;;4.50;99.90;;;;;;5013382;28;20207;-61
2021/12/11 12:10:10;;;;;;;19.70;12.50;;;4.60;99.70;;;;;;5013003;28;20234;-60
2021/12/11 12:12:37;;;;;;;19.42;14.27;;;4.60;99.40;;;;;;5013693;28;20227;-62
2021/12/11 12:15:07;;;;;;;15.27;12.48;;;4.60;99.10;;;;;;5013823;28;20602;-59
2021/12/11 12:17:34;;;;;;;16.02;12.18;;;4.70;98.80;;;;;;5013512;28;20206;-62
2021/12/11 12:20:04;;;;;;;14.30;11.90;;;4.70;98.60;;;;;;5013857;28;20203;-62
2021/12/11 12:22:34;;;;;;;16.00;11.50;;;4.70;98.40;;;;;;5013441;28;20231;-62
2021/12/11 12:25:02;;;;;;;13.65;10.43;;;4.70;98.00;;;;;;5013944;28;20226;-61
2021/12/11 12:27:34;;;;;;;12.00;9.75;;;4.70;97.70;;;;;;5013456;28;20210;-61
2021/12/11 12:30:09;;;;;;;13.20;9.27;;;4.70;97.30;;;;;;5015983;28;20663;-61
2021/12/11 12:32:37;;;;;;;14.05;9.90;;;4.70;96.70;;;;;;5017761;28;20230;-62
2021/12/11 12:35:08;;;;;;;11.18;10.00;;;4.70;96.00;;;;;;5017299;28;20578;-62
2021/12/11 12:37:37;;;;;;;12.75;9.30;;;4.70;95.70;;;;;;5017803;28;20191;-62
2021/12/11 12:40:10;;;;;;;12.07;9.93;;;4.70;95.20;;;;;;5017816;28;20195;-62
2021/12/11 12:42:50;;;;;;;12.65;9.07;;;4.70;95.20;;;;;;5018914;28;20226;-62
2021/12/11 12:45:21;;;;;;;13.70;9.25;;;4.80;95.10;;;;;;5017363;28;20237;-61
2021/12/11 12:47:51;;;;;;;9.57;8.27;;;4.80;95.00;;;;;;5017257;28;20203;-61
2021/12/11 12:50:23;;;;;;;11.10;8.30;;;4.80;94.70;;;;;;5017486;28;20232;-62
2021/12/11 12:52:51;;;;;;;9.60;8.60;;;4.90;94.50;;;;;;5017230;28;20242;-62
2021/12/11 12:55:23;;;;;;;10.57;7.82;;;4.90;94.30;;;;;;5016601;28;20206;-62
2021/12/11 12:57:53;;;;;;;11.80;8.70;;;4.90;94.00;;;;;;5017075;28;20219;-62
2021/12/11 13:00:23;;;;;;;11.63;8.70;;;4.90;93.90;;;;;;5020419;28;20590;-62
2021/12/11 13:02:54;;;;;;;9.48;8.30;;;5.00;93.90;;;;;;5026941;28;20230;-61
2021/12/11 13:05:25;;;;;;;10.95;9.10;;;5.00;93.60;;;;;;5023569;28;20187;-62
2021/12/11 13:07:58;;;;;;;14.25;8.43;;;5.10;93.40;;;;;;5018092;28;20210;-60
2021/12/11 13:10:30;;;;;;;11.80;7.28;;;5.10;93.00;;;;;;5018272;28;20207;-61
2021/12/11 13:12:57;;;;;;;9.63;7.50;;;5.10;92.60;;;;;;5017714;28;20255;-61
2021/12/11 13:15:28;;;;;;;11.27;8.23;;;5.10;92.00;;;;;;5017977;28;20207;-60
2021/12/11 13:18:00;;;;;;;8.82;7.68;;;5.10;92.00;;;;;;5018710;28;20218;-61
2021/12/11 13:20:30;;;;;;;10.63;7.85;;;5.10;92.10;;;;;;5019746;28;20210;-62
2021/12/11 13:22:59;;;;;;;12.15;8.35;;;5.10;92.10;;;;;;5018218;28;20731;-60
2021/12/11 13:25:29;;;;;;;14.45;8.43;;;5.10;92.20;;;;;;5019030;28;20207;-61
2021/12/11 13:28:01;;;;;;;10.73;8.75;;;5.20;92.10;;;;;;5018899;28;20199;-63
2021/12/11 13:30:31;;;;;;;12.73;8.95;;;5.30;91.90;;;;;;5018419;28;20207;-61
2021/12/11 13:33:05;;;;;;;9.30;8.40;;;5.50;91.60;;;;;;5017616;28;20234;-61
2021/12/11 13:35:42;;;;;;;8.90;7.13;;;5.70;91.30;;;;;;5017406;28;20267;-61
2021/12/11 13:38:12;;;;;;;8.77;7.53;;;5.70;90.80;;;;;;5016360;28;20190;-62
2021/12/11 13:40:43;;;;;;;9.20;7.15;;;5.50;90.30;;;;;;5017369;28;20196;-61
2021/12/11 13:43:11;;;;;;;13.55;7.20;;;5.40;90.20;;;;;;5017361;28;20528;-61
2021/12/11 13:45:42;;;;;;;8.27;7.38;;;5.20;90.10;;;;;;5016419;28;20199;-61
2021/12/11 13:48:11;;;;;;;12.00;7.40;;;5.10;89.20;;;;;;5016633;28;20191;-63
2021/12/11 13:50:43;;;;;;;7.55;5.95;;;5.10;90.00;;;;;;5016330;28;20586;-62
2021/12/11 13:53:12;;;;;;;6.60;5.88;;;5.00;89.70;;;;;;5015704;28;20711;-61
2021/12/11 13:55:40;;;;;;;6.82;6.05;;;4.90;89.40;;;;;;5015933;28;20226;-60
2021/12/11 13:58:09;;;;;;;10.20;6.00;;;4.90;89.10;;;;;;5015913;28;20213;-61
2021/12/11 14:00:41;;;;;;;11.02;8.45;;;4.80;88.70;;;;;;5015851;28;20230;-61
2021/12/11 14:03:08;;;;;;;10.20;6.90;;;4.80;88.60;;;;;;5015466;28;20234;-59
2021/12/11 14:05:35;;;;;;;10.57;7.78;;;4.80;88.70;;;;;;5015502;28;20203;-60